• Join FlightAware (Why Join?)
  • Login
  • US Flag 
10:37PM EDT


 

Airport Tracker/Info


-or-


 

Live Flight TrackerFlight Track Log ✈ CSJ405 ✈ 26-Apr-2013 ✈ KROC - CYHM

Flight Track Log - Related Links

Times and Time Zones

All times are in EDT time to prevent confusion due to time zone crossing. See the CSJ405 flight status page for this flight to view local times or setup timezone preferences in your user account.

Time Position Orientation Groundspeed Altitude Reporting Facility
EDT Latitude Longitude Course Direction KTS MPH feet Rate Location/Type
10:14PM 43.1136 -77.6794 257° West 94 108 900  Level Cleveland Center
10:15PM 43.1064 -77.7225 257° West 111 128 2,100 1,080 Climbing Cleveland Center
10:16PM 43.1136 -77.7619 284° West 105 121 3,300 960 Climbing Cleveland Center
10:17PM 43.1250 -77.8014 292° West 107 123 4,100 240 Climbing Cleveland Center
10:19PM 43.1167 -77.8667 260° West 150 173 4,100 -60 Level Toronto Center
10:20PM 43.1167 -77.9500 270° West 150 173 4,000 -60 Descending Toronto Center
10:21PM 43.1167 -77.9833 270° West 150 173 4,000  Level Toronto Center
10:22PM 43.1333 -78.0333 295° West 150 173 4,000  Level Toronto Center
10:23PM 43.1167 -78.1000 251° West 150 173 4,000  Level Toronto Center
10:24PM 43.1167 -78.1667 270° West 150 173 4,000 -60 Level Toronto Center
10:25PM 43.1167 -78.2167 270° West 150 173 3,900  Descending Toronto Center
10:26PM 43.1333 -78.3333 281° West 149 171 4,000  Climbing Buffalo TRACON
10:28PM 43.1500 -78.4000 289° West 150 173 4,000 -60 Level Buffalo TRACON
10:28PM 43.1333 -78.4167 216° Southwest 150 173 3,900  Descending Toronto Center
10:29PM 43.1333 -78.4667 270° West 150 173 4,000  Climbing Toronto Center
10:30PM 43.1500 -78.5167 295° West 150 173 4,000  Level Toronto Center
10:31PM 43.1500 -78.5833 270° West 150 173 4,100  Climbing Toronto Center
10:32PM 43.1500 -78.6333 270° West 150 173 4,100 -60 Level Toronto Center
10:33PM 43.1500 -78.7000 270° West 150 173 4,000 -60 Descending Toronto Center
10:34PM 43.1500 -78.7500 270° West 150 173 4,000  Level Toronto Center
10:35PM 43.1500 -78.8167 270° West 150 173 4,000  Level Toronto Center
10:36PM 43.1500 -78.8500 270° West 150 173 4,000  Level Toronto Center
10:37PM 43.1500 -78.9167 270° West 150 173 4,000  Level Toronto Center
10:38PM 43.1500 -78.9667 270° West 150 173 4,000  Level Toronto Center
10:39PM 43.1500 -79.0333 270° West 150 173 4,000  Level Toronto Center
10:40PM 43.1500 -79.0833 270° West 150 173 4,000  Level Toronto Center
10:41PM 43.1500 -79.1500 270° West 150 173 4,000  Level Toronto Center
10:42PM 43.1500 -79.2000 270° West 150 173 4,000  Level Toronto Center
10:43PM 43.1500 -79.2667 270° West 150 173 4,000  Level Toronto Center
10:44PM 43.1500 -79.3167 270° West 150 173 4,000  Level Toronto Center
10:45PM 43.1500 -79.3667 270° West 150 173 4,000  Level Toronto Center
10:46PM 43.1500 -79.4333 270° West 150 173 4,000 -60 Level Toronto Center
10:47PM 43.1500 -79.4667 270° West 150 173 3,900  Descending Toronto Center
10:48PM 43.1667 -79.5500 285° West 150 173 4,000 -120 Climbing Toronto Center
10:49PM 43.1833 -79.5833 304° West 150 173 3,700 -300 Descending Toronto Center
10:50PM 43.2000 -79.6500 289° West 160 184 3,500 -240 Descending Toronto Center
10:51PM 43.2167 -79.7000 295° West 160 184 3,300 -240 Descending Toronto Center
10:52PM 43.2333 -79.7500 295° West 160 184 3,100 -360 Descending Toronto Center
10:53PM 43.2333 -79.8167 270° West 150 173 2,600 -600 Descending Toronto Center
10:54PM 43.2000 -79.8333 200° South 130 150 1,900 -600 Descending Toronto Center
10:55PM 43.2000 -79.8667 270° West 80 92 1,500 -420 Descending Toronto Center
10:56PM 43.1667 -79.8833 200° South 70 81 1,100 -300 Descending Toronto Center
10:57PM 43.1667 -79.9000 270° West 60 69 900 -240 Descending Toronto Center